Accueil
METAR-TAF:

METAR-TAF

Aéroports :

Plate-forme pétrolière

P11-b, Pays-Bas

latitude: 52-21-36N, longitude: 3-20-30E, altitude: 24 m

Observation

Le bulletin a été fait il y a 16 minutes, à 20:25 UTC
Vent 11 kt de ouest/nord-ouest, variant entre ouest et nord/nord-ouest
Température 16°C
Humidité 82%
Pression 1026 hPa
Visibilité 10 km ou plus
Nuages fragmentés à une hauteur de 2000 ft
Nuages fragmentés à une hauteur de 2400 ft

METAR: EHPG 212025Z AUTO 30011KT 270V340 9999 BKN020 BKN024 16/13 Q1026 W///H///

Heure: 22:41 (20:41 UTC)


TAF: absent

Observations et prévisions météorologiques de plus de 4000 aéroports (messages METAR et TAF).

Les stations disponibles sont représentées par des disques jaunes et rouges sur la carte.

Passer la souris dessus pour voir le nom de la station.

Cliquer dessus pour voir les observations et prévisions météorologiques.

Pour changer de carte: cliquez sur les boutons verts avec une croix noire pour zoomer, sur le bouton vert avec un tiret pour effectuer un zoom arrière, ou sur les flèches vertes pour les cartes adjacentes.


METAR-TAF: